Time;durP1;ratioP1;P1;durP2;ratioP2;P2;SDS_P1;SDS_P2;PMS_P1;PMS_P2;Temp;Humidity;BMP_temperature;BMP_pressure;BME280_temperature;BME280_humidity;BME280_pressure;Samples;Min_cycle;Max_cycle;Signal;HPM_P1;HPM_P2
2023/05/23 00:01:57;;;;;;;;;;;;;;;21.49;50.16;95369.25;10232987;29;1948;-68
2023/05/23 00:06:57;;;;;;;;;;;;;;;21.49;50.12;95369.25;10235997;28;2004;-68
2023/05/23 00:11:58;;;;;;;;;;;;;;;21.50;50.03;95362.88;10236756;28;2018;-68
2023/05/23 00:16:59;;;;;;;;;;;;;;;21.50;49.93;95367.38;10237738;28;1855;-68
2023/05/23 00:21:59;;;;;;;;;;;;;;;21.50;49.99;95372.66;10239609;28;2362;-68
2023/05/23 00:26:59;;;;;;;;;;;;;;;21.49;50.34;95369.25;10230250;28;1928;-68
2023/05/23 00:32:00;;;;;;;;;;;;;;;21.49;50.25;95365.81;10237179;28;1828;-68
2023/05/23 00:37:01;;;;;;;;;;;;;;;21.49;49.83;95369.25;10238195;28;1911;-68
2023/05/23 00:42:02;;;;;;;;;;;;;;;21.50;50.02;95370.00;10235272;28;4436;-68
2023/05/23 00:47:03;;;;;;;;;;;;;;;21.49;50.26;95371.88;10238736;28;2084;-67
2023/05/23 00:52:03;;;;;;;;;;;;;;;21.48;49.92;95367.66;10237229;28;1960;-68
2023/05/23 00:57:04;;;;;;;;;;;;;;;21.49;49.86;95376.38;10240502;28;1877;-68
2023/05/23 01:02:04;;;;;;;;;;;;;;;21.50;50.25;95372.66;10239343;28;2187;-68
2023/05/23 01:07:04;;;;;;;;;;;;;;;21.48;50.06;95375.56;10232401;28;1984;-68
2023/05/23 01:12:23;;;;;;;;;;;;;;;21.49;50.03;95374.53;10235514;28;2185;-68
2023/05/23 01:17:30;;;;;;;;;;;;;;;21.48;50.11;95377.41;10235671;28;2171;-67
2023/05/23 01:22:33;;;;;;;;;;;;;;;21.49;50.20;95384.28;10231835;28;1906;-68
2023/05/23 01:27:40;;;;;;;;;;;;;;;21.49;49.76;95385.06;10236447;28;1989;-67
2023/05/23 01:32:41;;;;;;;;;;;;;;;21.50;50.04;95393.75;10237624;28;1936;-68
2023/05/23 01:37:41;;;;;;;;;;;;;;;21.49;49.96;95386.91;10245913;28;1960;-68
2023/05/23 01:42:41;;;;;;;;;;;;;;;21.48;49.89;95386.13;10237837;28;4531;-67
2023/05/23 01:47:41;;;;;;;;;;;;;;;21.49;49.82;95389.56;10245500;28;2167;-67
2023/05/23 01:52:42;;;;;;;;;;;;;;;21.48;49.92;95393.25;10242027;28;1925;-69
2023/05/23 01:57:42;;;;;;;;;;;;;;;21.49;49.79;95398.25;10238361;28;2197;-68
2023/05/23 02:02:42;;;;;;;;;;;;;;;21.48;49.87;95411.69;10242365;28;1957;-68
2023/05/23 02:07:43;;;;;;;;;;;;;;;21.49;49.80;95403.53;10240724;28;2161;-68
2023/05/23 02:12:43;;;;;;;;;;;;;;;21.49;49.66;95414.06;10244980;28;2052;-67
2023/05/23 02:17:43;;;;;;;;;;;;;;;21.50;49.82;95404.28;10245145;28;2066;-67
2023/05/23 02:22:43;;;;;;;;;;;;;;;21.48;49.88;95407.22;10240833;28;1965;-68
2023/05/23 02:27:44;;;;;;;;;;;;;;;21.49;49.58;95405.38;10238707;28;2036;-67
2023/05/23 02:32:45;;;;;;;;;;;;;;;21.50;49.72;95409.56;10239148;28;2150;-67
2023/05/23 02:37:45;;;;;;;;;;;;;;;21.49;49.61;95408.81;10241908;28;1957;-68
2023/05/23 02:42:45;;;;;;;;;;;;;;;21.49;49.83;95418.56;10242276;28;4413;-68
2023/05/23 02:47:45;;;;;;;;;;;;;;;21.49;49.83;95423.84;10239965;28;1945;-68
2023/05/23 02:52:46;;;;;;;;;;;;;;;21.49;49.61;95416.72;10239893;28;1941;-68
2023/05/23 02:57:46;;;;;;;;;;;;;;;21.49;49.65;95426.47;10236824;28;1954;-68
2023/05/23 03:02:46;;;;;;;;;;;;;;;21.50;49.65;95423.53;10236081;28;2051;-68
2023/05/23 03:07:46;;;;;;;;;;;;;;;21.50;49.60;95425.38;10239973;28;2158;-68
2023/05/23 03:12:47;;;;;;;;;;;;;;;21.49;49.46;95423.84;10238709;28;1951;-69
2023/05/23 03:17:47;;;;;;;;;;;;;;;21.49;49.62;95429.91;10240037;28;1999;-67
2023/05/23 03:22:47;;;;;;;;;;;;;;;21.49;49.62;95427.25;10239578;28;1925;-68
2023/05/23 03:27:47;;;;;;;;;;;;;;;21.49;49.75;95437.81;10239045;28;1985;-68
2023/05/23 03:32:48;;;;;;;;;;;;;;;21.50;49.70;95434.09;10237723;28;2000;-67
2023/05/23 03:37:48;;;;;;;;;;;;;;;21.50;49.59;95435.94;10239343;28;2007;-68
2023/05/23 03:43:00;;;;;;;;;;;;;;;21.51;49.58;95434.88;10234944;28;4394;-68
2023/05/23 03:48:00;;;;;;;;;;;;;;;21.50;49.53;95430.66;10232961;28;2075;-68
2023/05/23 03:53:00;;;;;;;;;;;;;;;21.50;49.58;95444.63;10236105;28;1984;-68
2023/05/23 03:58:00;;;;;;;;;;;;;;;21.51;49.45;95438.31;10237798;28;2038;-68
2023/05/23 04:03:01;;;;;;;;;;;;;;;21.50;49.58;95441.22;10236032;28;2162;-67
2023/05/23 04:08:01;;;;;;;;;;;;;;;21.50;49.64;95435.94;10238393;28;1970;-68
2023/05/23 04:13:01;;;;;;;;;;;;;;;21.51;49.56;95437.50;10243399;28;1918;-68
2023/05/23 04:18:02;;;;;;;;;;;;;;;21.51;49.50;95448.06;10241050;28;2006;-68
2023/05/23 04:23:02;;;;;;;;;;;;;;;21.50;49.64;95451.75;10240617;28;1979;-69
2023/05/23 04:28:04;;;;;;;;;;;;;;;21.52;49.63;95465.44;10235615;28;1977;-67
2023/05/23 04:33:05;;;;;;;;;;;;;;;21.51;49.87;95469.16;10238813;28;1941;-68
2023/05/23 04:38:05;;;;;;;;;;;;;;;21.51;49.60;95469.16;10236252;28;1920;-68
2023/05/23 04:43:08;;;;;;;;;;;;;;;21.51;49.58;95469.94;10237134;29;4436;-68
2023/05/23 04:48:08;;;;;;;;;;;;;;;21.52;49.59;95465.44;10238376;28;1919;-68
2023/05/23 04:53:08;;;;;;;;;;;;;;;21.51;49.62;95474.44;10238468;28;1980;-68
2023/05/23 04:58:08;;;;;;;;;;;;;;;21.52;49.86;95481.25;10218166;28;2066;-68
2023/05/23 05:03:09;;;;;;;;;;;;;;;21.52;49.58;95483.91;10233098;28;2322;-68
2023/05/23 05:08:10;;;;;;;;;;;;;;;21.51;49.63;95485.78;10243259;28;2115;-68
2023/05/23 05:13:10;;;;;;;;;;;;;;;21.52;49.59;95491.81;10245229;28;1973;-68
2023/05/23 05:18:12;;;;;;;;;;;;;;;21.52;49.63;95489.19;10240068;28;1894;-71
2023/05/23 05:23:12;;;;;;;;;;;;;;;21.52;49.85;95482.06;10245001;28;1926;-71
2023/05/23 05:28:12;;;;;;;;;;;;;;;21.54;49.54;95479.13;10238198;28;1991;-68
2023/05/23 05:33:13;;;;;;;;;;;;;;;21.55;49.56;95483.34;10244606;28;2049;-68
2023/05/23 05:38:13;;;;;;;;;;;;;;;21.55;49.89;95473.59;10240964;28;1956;-66
2023/05/23 05:43:13;;;;;;;;;;;;;;;21.61;50.06;95484.84;10242139;28;4374;-68
2023/05/23 05:48:14;;;;;;;;;;;;;;;21.61;50.49;95501.47;10243113;28;1969;-66
2023/05/23 05:53:15;;;;;;;;;;;;;;;21.62;50.57;95497.72;10244865;28;2022;-66
2023/05/23 05:58:15;;;;;;;;;;;;;;;21.63;51.13;95499.31;10241798;28;2120;-69
2023/05/23 06:03:15;;;;;;;;;;;;;;;21.64;51.21;95492.94;10245448;28;1910;-69
2023/05/23 06:08:15;;;;;;;;;;;;;;;21.66;51.05;95501.38;10241974;29;1967;-69
2023/05/23 06:13:16;;;;;;;;;;;;;;;21.66;50.93;95508.50;10242388;28;1995;-68
2023/05/23 06:18:16;;;;;;;;;;;;;;;21.67;51.35;95499.53;10242121;28;2011;-71
2023/05/23 06:23:17;;;;;;;;;;;;;;;21.66;51.24;95508.50;10241885;28;2089;-70
2023/05/23 06:28:17;;;;;;;;;;;;;;;21.66;51.67;95509.28;10241095;28;2174;-71
2023/05/23 06:33:17;;;;;;;;;;;;;;;21.66;51.63;95508.50;10244486;28;1966;-68
2023/05/23 06:38:17;;;;;;;;;;;;;;;21.67;51.51;95510.88;10239562;28;2063;-68
2023/05/23 06:43:18;;;;;;;;;;;;;;;21.68;51.60;95522.97;10240512;28;4553;-70
2023/05/23 06:48:18;;;;;;;;;;;;;;;21.68;51.48;95514.25;10244186;28;1984;-69
2023/05/23 06:53:18;;;;;;;;;;;;;;;21.68;51.44;95516.91;10237554;28;2316;-69
2023/05/23 06:58:18;;;;;;;;;;;;;;;21.69;51.40;95523.75;10238691;28;2281;-69
2023/05/23 07:03:19;;;;;;;;;;;;;;;21.70;51.52;95523.47;10241502;28;1926;-68
2023/05/23 07:08:19;;;;;;;;;;;;;;;21.69;51.61;95523.75;10239201;29;2202;-69
2023/05/23 07:13:19;;;;;;;;;;;;;;;21.69;51.51;95526.41;10235091;28;1913;-70
2023/05/23 07:18:19;;;;;;;;;;;;;;;21.70;51.67;95534.00;10239331;29;1909;-69
2023/05/23 07:23:21;;;;;;;;;;;;;;;21.70;51.61;95530.63;10240222;28;1890;-69
2023/05/23 07:28:21;;;;;;;;;;;;;;;21.72;51.73;95549.59;10238039;28;1949;-69
2023/05/23 07:33:21;;;;;;;;;;;;;;;21.71;51.97;95537.44;10240252;28;2454;-69
2023/05/23 07:38:22;;;;;;;;;;;;;;;21.71;51.95;95542.72;10239478;28;1997;-69
2023/05/23 07:43:22;;;;;;;;;;;;;;;21.71;51.70;95535.59;10240444;28;4370;-69
2023/05/23 07:48:22;;;;;;;;;;;;;;;21.71;51.75;95542.72;10238349;28;2210;-69
2023/05/23 07:53:23;;;;;;;;;;;;;;;21.71;51.98;95538.25;10240132;28;2166;-69
2023/05/23 07:58:23;;;;;;;;;;;;;;;21.72;51.72;95539.78;10212027;28;1981;-69
2023/05/23 08:03:24;;;;;;;;;;;;;;;21.72;51.93;95549.59;10238420;28;1884;-69
2023/05/23 08:08:24;;;;;;;;;;;;;;;21.71;51.91;95543.50;10239416;28;2046;-69
2023/05/23 08:13:25;;;;;;;;;;;;;;;21.72;52.02;95552.22;10234716;28;2198;-69
2023/05/23 08:18:25;;;;;;;;;;;;;;;21.73;51.68;95559.06;10235891;28;2167;-69
2023/05/23 08:23:25;;;;;;;;;;;;;;;21.73;51.98;95557.19;10236030;28;2232;-69
2023/05/23 08:28:26;;;;;;;;;;;;;;;21.72;51.90;95560.13;10237775;28;2048;-69
2023/05/23 08:33:26;;;;;;;;;;;;;;;21.73;51.72;95564.31;10236337;28;2047;-68
2023/05/23 08:38:26;;;;;;;;;;;;;;;21.72;51.74;95563.53;10235431;28;1929;-68
2023/05/23 08:43:27;;;;;;;;;;;;;;;21.73;51.98;95564.31;10249996;28;4457;-69
2023/05/23 08:48:27;;;;;;;;;;;;;;;21.73;51.87;95574.88;10244805;28;1971;-68
2023/05/23 08:53:27;;;;;;;;;;;;;;;21.72;51.69;95570.69;10242524;29;1956;-69
2023/05/23 08:58:29;;;;;;;;;;;;;;;21.72;51.95;95581.25;10246715;28;1952;-69
2023/05/23 09:03:29;;;;;;;;;;;;;;;21.71;51.69;95575.16;10244367;28;2130;-68
2023/05/23 09:08:29;;;;;;;;;;;;;;;21.72;51.44;95573.31;10243774;28;2132;-68
2023/05/23 09:13:30;;;;;;;;;;;;;;;21.73;51.58;95577.53;10240392;28;1996;-68
2023/05/23 09:18:40;;;;;;;;;;;;;;;21.73;51.64;95588.88;10253073;28;2000;-68
2023/05/23 09:23:40;;;;;;;;;;;;;;;21.73;51.69;95591.50;10239657;28;2142;-69
2023/05/23 09:28:41;;;;;;;;;;;;;;;21.71;51.67;95585.72;10244455;28;1930;-68
2023/05/23 09:33:42;;;;;;;;;;;;;;;21.72;51.40;95587.28;10242878;28;2012;-68
2023/05/23 09:38:43;;;;;;;;;;;;;;;21.72;51.53;95581.25;10241387;28;1973;-68
2023/05/23 09:43:53;;;;;;;;;;;;;;;21.73;51.52;95599.41;10242001;28;2082;-68
2023/05/23 09:48:54;;;;;;;;;;;;;;;21.71;51.54;95590.22;10239166;28;2013;-69
2023/05/23 09:53:55;;;;;;;;;;;;;;;21.73;51.30;95591.50;10239860;28;1951;-69
2023/05/23 09:58:56;;;;;;;;;;;;;;;21.73;51.58;95593.34;10244396;28;1903;-69
2023/05/23 10:03:57;;;;;;;;;;;;;;;21.72;51.26;95586.50;10239727;28;1891;-69
2023/05/23 10:09:03;;;;;;;;;;;;;;;21.73;51.60;95594.13;10243987;28;1969;-69
2023/05/23 10:14:04;;;;;;;;;;;;;;;21.72;51.52;95591.78;10243876;28;1872;-69
2023/05/23 10:19:19;;;;;;;;;;;;;;;21.73;51.51;95588.88;10240341;28;1883;-69
2023/05/23 10:24:20;;;;;;;;;;;;;;;21.73;51.47;95580.16;10238320;28;1850;-69
2023/05/23 10:29:21;;;;;;;;;;;;;;;21.74;51.44;95571.19;10240808;28;1907;-69
2023/05/23 10:34:25;;;;;;;;;;;;;;;21.74;51.61;95573.81;10240703;28;1922;-69
2023/05/23 10:39:31;;;;;;;;;;;;;;;21.75;51.45;95573.53;10224294;28;4472;-69
2023/05/23 10:44:31;;;;;;;;;;;;;;;21.74;51.64;95571.94;10239605;28;1924;-68
2023/05/23 10:49:38;;;;;;;;;;;;;;;21.76;51.59;95574.31;10251041;28;1907;-68
2023/05/23 10:54:43;;;;;;;;;;;;;;;21.76;51.64;95567.16;10241093;28;1433;-69
2023/05/23 10:59:43;;;;;;;;;;;;;;;21.78;51.20;95574.81;10250020;28;1867;-68
2023/05/23 11:04:44;;;;;;;;;;;;;;;21.78;51.38;95562.41;10237152;28;2043;-68
2023/05/23 11:10:03;;;;;;;;;;;;;;;21.78;51.71;95559.00;10239927;28;1974;-67
2023/05/23 11:15:15;;;;;;;;;;;;;;;21.80;51.82;95560.25;10239916;28;2020;-69
2023/05/23 11:20:21;;;;;;;;;;;;;;;21.81;51.93;95555.75;10240117;29;1828;-69
2023/05/23 11:25:42;;;;;;;;;;;;;;;21.81;51.90;95547.84;10464429;28;1888;-68
2023/05/23 11:30:42;;;;;;;;;;;;;;;21.81;51.80;95542.56;10462954;28;1842;-68
2023/05/23 11:35:43;;;;;;;;;;;;;;;21.82;51.56;95534.41;10461879;28;1873;-68
2023/05/23 11:40:44;;;;;;;;;;;;;;;21.83;51.79;95543.09;10467146;28;4411;-68
2023/05/23 11:45:45;;;;;;;;;;;;;;;21.83;51.74;95535.19;10464364;28;1827;-67
2023/05/23 11:50:46;;;;;;;;;;;;;;;21.83;51.81;95538.63;10469688;28;1923;-69
2023/05/23 11:55:47;;;;;;;;;;;;;;;21.85;51.50;95533.03;10467724;28;1879;-68
2023/05/23 12:00:47;;;;;;;;;;;;;;;21.85;51.72;95530.41;10468338;28;2383;-67
2023/05/23 12:05:48;;;;;;;;;;;;;;;21.85;51.44;95530.41;10468686;28;1820;-68
2023/05/23 12:10:57;;;;;;;;;;;;;;;21.85;51.72;95525.13;10458924;28;1890;-67
2023/05/23 12:15:58;;;;;;;;;;;;;;;21.86;51.41;95532.00;10468694;28;1827;-69
2023/05/23 12:21:02;;;;;;;;;;;;;;;21.87;51.67;95525.63;10470574;28;1910;-69
2023/05/23 12:26:11;;;;;;;;;;;;;;;21.86;51.54;95538.03;10511645;28;1793;-67
2023/05/23 12:31:12;;;;;;;;;;;;;;;21.88;51.68;95533.25;10510730;28;2023;-69
2023/05/23 12:36:31;;;;;;;;;;;;;;;21.89;51.57;95544.59;10487145;28;1880;-67
2023/05/23 12:41:34;;;;;;;;;;;;;;;21.88;51.62;95554.34;10473479;28;4497;-69
2023/05/23 12:46:34;;;;;;;;;;;;;;;21.89;51.77;95539.31;10478331;28;1884;-69
2023/05/23 12:51:35;;;;;;;;;;;;;;;21.88;51.48;95532.50;10480164;28;1932;-69
2023/05/23 12:56:35;;;;;;;;;;;;;;;21.90;51.47;95534.84;10470117;28;1891;-69
2023/05/23 13:01:35;;;;;;;;;;;;;;;21.90;51.55;95548.81;10480304;28;1989;-69
2023/05/23 13:06:36;;;;;;;;;;;;;;;21.90;51.57;95540.91;10458157;28;1903;-69
2023/05/23 13:11:36;;;;;;;;;;;;;;;21.90;51.68;95551.47;10473620;28;1848;-69
2023/05/23 13:16:38;;;;;;;;;;;;;;;21.90;51.38;95551.47;10479466;28;1888;-69
2023/05/23 13:21:38;;;;;;;;;;;;;;;21.91;51.34;95534.53;10475793;28;1927;-69
2023/05/23 13:26:38;;;;;;;;;;;;;;;21.88;51.46;95524.56;10451602;28;2114;-69
2023/05/23 13:31:38;;;;;;;;;;;;;;;21.90;51.20;95530.34;10477980;28;1844;-69
2023/05/23 13:36:39;;;;;;;;;;;;;;;21.90;51.52;95522.44;10479789;28;1953;-70
2023/05/23 13:41:39;;;;;;;;;;;;;;;21.91;51.19;95502.09;10470603;28;4462;-69
2023/05/23 13:46:39;;;;;;;;;;;;;;;21.91;51.02;95510.03;10483711;28;1781;-69
2023/05/23 13:51:42;;;;;;;;;;;;;;;21.92;51.02;95520.28;10465764;28;1859;-70
2023/05/23 13:56:42;;;;;;;;;;;;;;;21.91;51.46;95505.50;10481004;28;2049;-67
2023/05/23 14:01:42;;;;;;;;;;;;;;;21.91;51.34;95510.03;10481406;28;2080;-70
2023/05/23 14:06:43;;;;;;;;;;;;;;;21.91;51.25;95516.06;10476737;28;1901;-70
2023/05/23 14:11:43;;;;;;;;;;;;;;;21.91;51.18;95515.31;10470848;28;1871;-70
2023/05/23 14:16:43;;;;;;;;;;;;;;;21.91;51.02;95510.78;10478184;28;2015;-70
2023/05/23 14:21:44;;;;;;;;;;;;;;;21.91;50.79;95516.06;10475559;28;1981;-70
2023/05/23 14:26:45;;;;;;;;;;;;;;;21.92;50.91;95520.28;10465390;28;1882;-70
2023/05/23 14:31:46;;;;;;;;;;;;;;;21.91;50.96;95521.34;10476635;28;2064;-70
2023/05/23 14:36:46;;;;;;;;;;;;;;;21.90;51.21;95525.06;10472544;28;1895;-70
2023/05/23 14:41:46;;;;;;;;;;;;;;;21.90;50.84;95519.00;10475312;28;4528;-70
2023/05/23 14:46:49;;;;;;;;;;;;;;;21.90;50.84;95524.28;10474893;28;1905;-70
2023/05/23 14:51:50;;;;;;;;;;;;;;;21.91;50.59;95536.41;10470591;28;1896;-69
2023/05/23 14:56:50;;;;;;;;;;;;;;;21.90;50.85;95532.19;10476511;28;1808;-70
2023/05/23 15:01:50;;;;;;;;;;;;;;;21.89;50.78;95552.50;10478806;28;1980;-70
2023/05/23 15:06:50;;;;;;;;;;;;;;;21.88;50.41;95551.72;10474876;28;1875;-70
2023/05/23 15:11:51;;;;;;;;;;;;;;;21.87;50.57;95546.75;10479890;28;1899;-71
2023/05/23 15:16:51;;;;;;;;;;;;;;;21.88;50.41;95548.31;10477296;28;1836;-70
2023/05/23 15:21:51;;;;;;;;;;;;;;;21.87;50.53;95552.00;10474811;28;2038;-70
2023/05/23 15:26:52;;;;;;;;;;;;;;;21.88;50.19;95561.50;10475658;28;1839;-70
2023/05/23 15:31:52;;;;;;;;;;;;;;;21.88;50.41;95556.25;10471488;28;1894;-70
2023/05/23 15:36:53;;;;;;;;;;;;;;;21.88;50.46;95572.06;10470790;28;1902;-69
2023/05/23 15:41:53;;;;;;;;;;;;;;;21.88;50.39;95552.81;10474588;28;4407;-70
2023/05/23 15:46:53;;;;;;;;;;;;;;;21.86;50.33;95568.94;10469064;28;2046;-71
2023/05/23 15:51:53;;;;;;;;;;;;;;;21.86;49.90;95567.06;10478213;28;1867;-70
2023/05/23 15:56:54;;;;;;;;;;;;;;;21.85;50.25;95565.50;10476957;28;1823;-69
2023/05/23 16:01:54;;;;;;;;;;;;;;;21.87;50.01;95583.69;10475374;28;2068;-72
2023/05/23 16:06:54;;;;;;;;;;;;;;;21.86;50.19;95576.84;10474013;28;1800;-69
2023/05/23 16:11:55;;;;;;;;;;;;;;;21.85;49.99;95575.25;10477526;28;1855;-70
2023/05/23 16:16:55;;;;;;;;;;;;;;;21.85;49.95;95588.47;10485692;28;2003;-70
2023/05/23 16:21:55;;;;;;;;;;;;;;;21.85;49.46;95591.09;10474850;28;1910;-72
2023/05/23 16:26:56;;;;;;;;;;;;;;;21.84;49.48;95594.81;10461746;28;1895;-71
2023/05/23 16:31:56;;;;;;;;;;;;;;;21.82;49.30;95587.16;10478903;28;1855;-69
2023/05/23 16:36:56;;;;;;;;;;;;;;;21.82;49.30;95587.16;10474019;28;1792;-70
2023/05/23 16:41:57;;;;;;;;;;;;;;;21.82;49.41;95591.69;10478601;28;4366;-71
2023/05/23 16:46:57;;;;;;;;;;;;;;;21.82;49.03;95591.69;10481930;28;1851;-72
2023/05/23 16:51:57;;;;;;;;;;;;;;;21.79;48.99;95593.00;10475584;28;1953;-73
2023/05/23 16:57:00;;;;;;;;;;;;;;;21.79;48.87;95598.28;10479606;28;1892;-70
2023/05/23 17:02:00;;;;;;;;;;;;;;;21.78;48.84;95591.41;10478587;28;1901;-71
2023/05/23 17:07:01;;;;;;;;;;;;;;;21.79;48.57;95594.84;10477599;28;1875;-70
2023/05/23 17:12:01;;;;;;;;;;;;;;;21.79;48.87;95600.13;10474636;28;2120;-71
2023/05/23 17:17:04;;;;;;;;;;;;;;;21.80;48.66;95606.97;10479170;28;1824;-75
2023/05/23 17:22:04;;;;;;;;;;;;;;;21.79;48.25;95605.41;10479339;28;1969;-70
2023/05/23 17:27:04;;;;;;;;;;;;;;;21.76;47.71;95614.66;10476074;28;1799;-72
2023/05/23 17:32:05;;;;;;;;;;;;;;;21.77;47.78;95616.25;10481367;28;2216;-69
2023/05/23 17:37:05;;;;;;;;;;;;;;;21.76;47.97;95608.63;10471159;28;2021;-68
2023/05/23 17:42:05;;;;;;;;;;;;;;;21.76;48.63;95619.19;10476276;28;4376;-68
2023/05/23 17:47:06;;;;;;;;;;;;;;;21.76;48.59;95625.22;10471632;28;1895;-68
2023/05/23 17:52:08;;;;;;;;;;;;;;;21.78;48.48;95617.03;10474478;28;1935;-69
2023/05/23 17:57:09;;;;;;;;;;;;;;;21.78;48.91;95620.44;10474361;28;1954;-67
2023/05/23 18:02:10;;;;;;;;;;;;;;;21.81;48.77;95621.72;10474758;28;1974;-69
2023/05/23 18:07:10;;;;;;;;;;;;;;;21.83;48.51;95632.81;10477406;28;2144;-69
2023/05/23 18:12:11;;;;;;;;;;;;;;;21.84;48.67;95637.03;10473721;28;1905;-65
2023/05/23 18:17:11;;;;;;;;;;;;;;;21.84;48.42;95635.16;10474794;28;1843;-68
2023/05/23 18:22:13;;;;;;;;;;;;;;;21.84;48.70;95637.81;10474896;28;1902;-65
2023/05/23 18:27:13;;;;;;;;;;;;;;;21.84;49.01;95640.44;10472087;28;1891;-65
2023/05/23 18:32:13;;;;;;;;;;;;;;;21.85;48.83;95646.50;10473081;28;1899;-66
2023/05/23 18:37:14;;;;;;;;;;;;;;;21.84;49.05;95653.63;10478182;28;1847;-65
2023/05/23 18:42:14;;;;;;;;;;;;;;;21.85;48.88;95657.06;10467514;28;4432;-65
2023/05/23 18:47:15;;;;;;;;;;;;;;;21.86;48.71;95661.28;10473646;28;1934;-66
2023/05/23 18:52:15;;;;;;;;;;;;;;;21.84;48.78;95661.56;10476072;28;1934;-65
2023/05/23 18:57:16;;;;;;;;;;;;;;;21.85;49.00;95671.06;10470548;28;1879;-66
2023/05/23 19:02:17;;;;;;;;;;;;;;;21.85;49.01;95675.53;10474441;28;2175;-66
2023/05/23 19:07:17;;;;;;;;;;;;;;;21.84;48.72;95685.31;10466436;28;1962;-64
2023/05/23 19:12:17;;;;;;;;;;;;;;;21.85;48.96;95691.38;10470005;28;1892;-68
2023/05/23 19:17:18;;;;;;;;;;;;;;;21.85;48.89;95702.72;10469803;28;1883;-71
2023/05/23 19:22:18;;;;;;;;;;;;;;;21.86;48.68;95709.56;10470186;28;2044;-73
2023/05/23 19:27:18;;;;;;;;;;;;;;;21.87;49.26;95718.25;10462223;28;1874;-73
2023/05/23 19:32:19;;;;;;;;;;;;;;;21.88;50.05;95720.59;10473228;28;1977;-68
2023/05/23 19:37:19;;;;;;;;;;;;;;;21.90;50.32;95728.28;10453852;28;1910;-71
2023/05/23 19:42:20;;;;;;;;;;;;;;;21.91;50.92;95727.19;10469538;28;4371;-72
2023/05/23 19:47:21;;;;;;;;;;;;;;;21.93;50.97;95724.28;10480139;28;1812;-72
2023/05/23 19:52:21;;;;;;;;;;;;;;;21.95;50.92;95732.72;10486851;28;1954;-72
2023/05/23 19:57:21;;;;;;;;;;;;;;;21.94;51.29;95731.91;10475020;28;1878;-71
2023/05/23 20:02:22;;;;;;;;;;;;;;;21.94;51.30;95737.19;10480055;28;2243;-73
2023/05/23 20:07:22;;;;;;;;;;;;;;;21.95;51.45;95743.25;10479904;28;1845;-73
2023/05/23 20:12:22;;;;;;;;;;;;;;;21.95;51.57;95738.75;10484335;28;1932;-72
2023/05/23 20:17:23;;;;;;;;;;;;;;;21.96;51.35;95747.47;10476088;28;1863;-72
2023/05/23 20:22:23;;;;;;;;;;;;;;;21.97;51.78;95746.41;10471870;28;1914;-72
2023/05/23 20:27:23;;;;;;;;;;;;;;;21.97;51.51;95749.03;10482421;28;1966;-72
2023/05/23 20:32:24;;;;;;;;;;;;;;;21.96;51.43;95750.91;10473483;28;1915;-71
2023/05/23 20:37:27;;;;;;;;;;;;;;;21.96;51.67;95761.44;10481387;28;1975;-71
2023/05/23 20:42:30;;;;;;;;;;;;;;;21.95;51.60;95762.50;10478677;28;4413;-72
2023/05/23 20:47:31;;;;;;;;;;;;;;;21.96;51.38;95769.38;10481831;28;1970;-73
2023/05/23 20:52:31;;;;;;;;;;;;;;;21.95;51.65;95775.69;10483381;28;1910;-71
2023/05/23 20:57:31;;;;;;;;;;;;;;;21.96;51.71;95781.78;10473043;28;2109;-71
2023/05/23 21:02:31;;;;;;;;;;;;;;;21.95;51.25;95780.97;10478423;28;1917;-72
2023/05/23 21:07:32;;;;;;;;;;;;;;;21.96;51.28;95782.56;10476907;28;2046;-71
2023/05/23 21:12:32;;;;;;;;;;;;;;;21.95;51.67;95782.84;10480407;28;1961;-72
2023/05/23 21:17:32;;;;;;;;;;;;;;;21.95;51.50;95780.97;10477841;28;2005;-71
2023/05/23 21:22:33;;;;;;;;;;;;;;;21.95;51.50;95777.56;10480885;28;1906;-71
2023/05/23 21:27:33;;;;;;;;;;;;;;;21.95;51.31;95785.50;10477676;28;1856;-71
2023/05/23 21:32:33;;;;;;;;;;;;;;;21.94;51.43;95792.63;10473456;28;1836;-70
2023/05/23 21:37:33;;;;;;;;;;;;;;;21.94;51.40;95799.75;10478176;28;2073;-69
2023/05/23 21:42:34;;;;;;;;;;;;;;;21.94;51.49;95800.53;10479841;28;4427;-71
2023/05/23 21:47:34;;;;;;;;;;;;;;;21.93;51.46;95804.22;10484194;28;1875;-71
2023/05/23 21:52:34;;;;;;;;;;;;;;;21.94;51.38;95808.44;10480548;28;2403;-70
2023/05/23 21:57:34;;;;;;;;;;;;;;;21.94;51.53;95810.28;10478401;28;2089;-70
2023/05/23 22:02:36;;;;;;;;;;;;;;;21.93;51.38;95820.06;10471772;28;1957;-70
2023/05/23 22:07:36;;;;;;;;;;;;;;;21.93;51.51;95820.06;10475221;28;1883;-71
2023/05/23 22:12:36;;;;;;;;;;;;;;;21.93;51.48;95822.69;10476896;28;1831;-70
2023/05/23 22:17:41;;;;;;;;;;;;;;;21.93;51.42;95829.84;10473858;28;1890;-70
2023/05/23 22:22:42;;;;;;;;;;;;;;;21.92;51.38;95836.97;10478026;28;1972;-70
2023/05/23 22:27:42;;;;;;;;;;;;;;;21.92;51.34;95836.97;10470025;28;1847;-70
2023/05/23 22:32:42;;;;;;;;;;;;;;;21.92;51.12;95839.63;10471762;28;1875;-71
2023/05/23 22:37:42;;;;;;;;;;;;;;;21.92;51.17;95834.34;10471874;28;1895;-71
2023/05/23 22:42:43;;;;;;;;;;;;;;;21.92;51.29;95830.91;10475897;28;4494;-71
2023/05/23 22:47:47;;;;;;;;;;;;;;;21.92;51.27;95831.69;10456350;28;2155;-70
2023/05/23 22:52:47;;;;;;;;;;;;;;;21.91;51.02;95827.47;10476816;28;1386;-70
2023/05/23 22:57:47;;;;;;;;;;;;;;;21.91;51.21;95838.03;10478738;28;1419;-70
2023/05/23 23:02:48;;;;;;;;;;;;;;;21.91;51.20;95827.47;10479058;28;1914;-71
2023/05/23 23:07:48;;;;;;;;;;;;;;;21.92;51.02;95823.00;10475879;28;1887;-70
2023/05/23 23:12:48;;;;;;;;;;;;;;;21.91;51.23;95818.78;10452997;28;1860;-69
2023/05/23 23:17:49;;;;;;;;;;;;;;;21.91;50.82;95824.84;10474778;28;1898;-70
2023/05/23 23:22:49;;;;;;;;;;;;;;;21.91;50.79;95816.91;10470388;28;1959;-71
2023/05/23 23:27:49;;;;;;;;;;;;;;;21.91;51.05;95818.78;10480251;28;2096;-70
2023/05/23 23:32:50;;;;;;;;;;;;;;;21.90;51.04;95819.84;10474666;28;1866;-70
2023/05/23 23:37:50;;;;;;;;;;;;;;;21.90;50.62;95822.47;10471471;28;1812;-70
2023/05/23 23:42:50;;;;;;;;;;;;;;;21.90;50.97;95828.56;10466939;28;4421;-70
2023/05/23 23:47:50;;;;;;;;;;;;;;;21.89;50.73;95829.59;10470841;28;2080;-70
2023/05/23 23:52:51;;;;;;;;;;;;;;;21.90;50.76;95825.91;10467711;28;1888;-69
2023/05/23 23:57:51;;;;;;;;;;;;;;;21.89;50.58;95824.31;10466478;28;1943;-69
